createdAt,value
2018-11-11T00:00:09.851Z,96.40
2018-11-11T00:02:38.039Z,96.40
2018-11-11T00:05:07.400Z,96.40
2018-11-11T00:07:35.545Z,96.40
2018-11-11T00:10:03.792Z,96.40
2018-11-11T00:12:31.914Z,96.40
2018-11-11T00:15:00.382Z,96.40
2018-11-11T00:17:28.522Z,96.50
2018-11-11T00:19:56.953Z,96.50
2018-11-11T00:22:25.251Z,96.50
2018-11-11T00:24:53.493Z,96.50
2018-11-11T00:27:21.642Z,96.60
2018-11-11T00:29:49.958Z,96.70
2018-11-11T00:32:18.088Z,96.70
2018-11-11T00:34:46.294Z,96.70
2018-11-11T00:37:14.755Z,96.70
2018-11-11T00:39:43.448Z,96.60
2018-11-11T00:42:11.831Z,96.60
2018-11-11T00:44:40.183Z,96.60
2018-11-11T00:47:08.594Z,96.60
2018-11-11T00:49:37.332Z,96.60
2018-11-11T00:52:06.312Z,96.60
2018-11-11T00:54:34.611Z,96.60
2018-11-11T00:57:02.759Z,96.60
2018-11-11T00:59:30.896Z,96.60
2018-11-11T01:01:59.084Z,96.60
2018-11-11T01:04:27.243Z,96.70
2018-11-11T01:06:55.372Z,96.80
2018-11-11T01:09:23.502Z,96.80
2018-11-11T01:11:51.636Z,96.80
2018-11-11T01:14:19.866Z,96.90
2018-11-11T01:16:47.997Z,96.80
2018-11-11T01:19:16.454Z,96.90
2018-11-11T01:21:44.586Z,96.80
2018-11-11T01:24:12.723Z,96.80
2018-11-11T01:26:40.861Z,96.80
2018-11-11T01:29:08.999Z,96.90
2018-11-11T01:31:37.395Z,96.90
2018-11-11T01:34:05.521Z,96.90
2018-11-11T01:36:33.661Z,96.90
2018-11-11T01:39:02.354Z,96.90
2018-11-11T01:41:30.492Z,96.90
2018-11-11T01:43:58.618Z,97.00
2018-11-11T01:46:26.784Z,97.00
2018-11-11T01:48:54.966Z,97.00
2018-11-11T01:51:23.106Z,97.10
2018-11-11T01:53:51.251Z,97.10
2018-11-11T01:56:19.393Z,97.10
2018-11-11T01:58:47.896Z,97.20
2018-11-11T02:01:16.120Z,97.20
2018-11-11T02:03:44.303Z,97.30
2018-11-11T02:06:12.477Z,97.30
2018-11-11T02:08:40.601Z,97.30
2018-11-11T02:11:08.729Z,97.30
2018-11-11T02:13:36.950Z,97.20
2018-11-11T02:16:05.927Z,97.30
2018-11-11T02:18:34.133Z,97.30
2018-11-11T02:21:02.747Z,97.40
2018-11-11T02:23:30.815Z,97.40
2018-11-11T02:25:58.987Z,97.40
2018-11-11T02:28:27.116Z,97.30
2018-11-11T02:30:55.262Z,97.30
2018-11-11T02:33:23.419Z,97.30
2018-11-11T02:35:51.549Z,97.30
2018-11-11T02:38:19.714Z,97.30
2018-11-11T02:40:47.866Z,97.30
2018-11-11T02:43:16.297Z,97.30
2018-11-11T02:45:44.429Z,97.30
2018-11-11T02:48:12.672Z,97.30
2018-11-11T02:50:40.817Z,97.20
2018-11-11T02:53:08.945Z,97.10
2018-11-11T02:55:37.104Z,97.20
2018-11-11T02:58:05.286Z,97.20
2018-11-11T03:00:33.436Z,97.30
2018-11-11T03:03:01.602Z,97.40
2018-11-11T03:05:29.802Z,97.60
2018-11-11T03:07:58.240Z,97.60
2018-11-11T03:10:26.383Z,97.70
2018-11-11T03:12:54.493Z,97.70
2018-11-11T03:15:22.664Z,97.60
2018-11-11T03:17:50.798Z,97.70
2018-11-11T03:20:19.217Z,97.60
2018-11-11T03:22:47.777Z,97.60
2018-11-11T03:25:22.342Z,97.60
2018-11-11T03:27:50.798Z,97.80
2018-11-11T03:30:18.932Z,97.90
2018-11-11T03:32:47.170Z,98.00
2018-11-11T03:35:15.460Z,98.00
2018-11-11T03:37:44.313Z,98.00
2018-11-11T03:40:14.629Z,97.90
2018-11-11T03:42:43.019Z,98.00
2018-11-11T03:45:13.550Z,98.00
2018-11-11T03:47:42.532Z,98.00
2018-11-11T03:50:11.103Z,98.00
2018-11-11T03:52:39.702Z,98.00
2018-11-11T03:55:08.151Z,98.00
2018-11-11T03:57:36.663Z,98.00
2018-11-11T04:00:05.600Z,98.00
2018-11-11T04:02:33.759Z,98.10
2018-11-11T04:05:01.886Z,98.10
2018-11-11T04:07:30.095Z,98.10
2018-11-11T04:09:58.246Z,98.00
2018-11-11T04:12:26.388Z,98.00
2018-11-11T04:14:54.517Z,98.10
2018-11-11T04:17:22.633Z,98.00
2018-11-11T04:19:50.781Z,97.80
2018-11-11T04:22:19.907Z,97.30
2018-11-11T04:24:49.399Z,97.70
2018-11-11T04:27:17.663Z,97.90
2018-11-11T04:29:45.789Z,98.00
2018-11-11T04:32:13.943Z,98.20
2018-11-11T04:34:42.924Z,98.40
2018-11-11T04:37:11.294Z,98.40
2018-11-11T04:39:40.066Z,98.50
2018-11-11T04:42:08.192Z,97.90
2018-11-11T04:44:36.350Z,97.90
2018-11-11T04:47:04.545Z,97.80
2018-11-11T04:49:32.704Z,97.70
2018-11-11T04:52:00.831Z,97.70
2018-11-11T04:54:29.093Z,97.70
2018-11-11T04:56:57.259Z,98.00
2018-11-11T04:59:25.401Z,97.90
2018-11-11T05:01:53.738Z,98.00
2018-11-11T05:04:21.876Z,98.00
2018-11-11T05:06:50.042Z,98.20
2018-11-11T05:09:18.203Z,98.30
2018-11-11T05:11:46.333Z,98.30
2018-11-11T05:14:14.557Z,98.30
2018-11-11T05:16:42.709Z,98.30
2018-11-11T05:19:11.243Z,98.30
2018-11-11T05:21:39.431Z,98.30
2018-11-11T05:24:07.637Z,98.30
2018-11-11T05:26:35.960Z,98.30
2018-11-11T05:29:04.543Z,98.40
2018-11-11T05:31:32.683Z,98.40
2018-11-11T05:34:00.939Z,98.40
2018-11-11T05:36:29.061Z,98.40
2018-11-11T05:38:57.213Z,98.40
2018-11-11T05:41:25.481Z,98.40
2018-11-11T05:43:53.611Z,98.40
2018-11-11T05:46:21.754Z,98.40
2018-11-11T05:48:49.921Z,98.50
2018-11-11T05:51:18.041Z,98.50
2018-11-11T05:53:46.214Z,98.40
2018-11-11T05:56:14.326Z,98.30
2018-11-11T05:58:42.469Z,98.30
2018-11-11T06:01:10.623Z,98.30
2018-11-11T06:03:38.777Z,98.30
2018-11-11T06:06:06.906Z,98.30
2018-11-11T06:08:35.060Z,98.30
2018-11-11T06:11:03.229Z,98.30
2018-11-11T06:13:31.459Z,98.30
2018-11-11T06:15:59.609Z,98.30
2018-11-11T06:18:27.758Z,98.60
2018-11-11T06:20:55.905Z,98.30
2018-11-11T06:23:24.048Z,98.30
2018-11-11T06:25:52.171Z,98.30
2018-11-11T06:28:20.318Z,98.40
2018-11-11T06:30:48.431Z,98.40
2018-11-11T06:33:16.569Z,98.40
2018-11-11T06:35:44.708Z,98.40
2018-11-11T06:38:12.838Z,98.40
2018-11-11T06:40:40.963Z,98.40
2018-11-11T06:43:09.094Z,98.40
2018-11-11T06:45:37.227Z,98.40
2018-11-11T06:48:05.495Z,98.30
2018-11-11T06:50:33.543Z,98.30
2018-11-11T06:53:02.042Z,98.30
2018-11-11T06:55:30.169Z,98.30
2018-11-11T06:57:58.350Z,98.30
2018-11-11T07:00:26.454Z,98.30
2018-11-11T07:03:06.234Z,98.30
2018-11-11T07:05:34.434Z,98.30
2018-11-11T07:08:02.555Z,98.30
2018-11-11T07:10:30.685Z,98.30
2018-11-11T07:12:58.823Z,98.40
2018-11-11T07:15:26.954Z,98.30
2018-11-11T07:17:55.373Z,98.40
2018-11-11T07:20:23.707Z,98.40
2018-11-11T07:22:51.841Z,98.40
2018-11-11T07:25:19.974Z,98.40
2018-11-11T07:27:48.105Z,98.40
2018-11-11T07:30:16.243Z,98.40
2018-11-11T07:32:44.389Z,98.70
2018-11-11T07:35:12.601Z,98.40
2018-11-11T07:37:40.994Z,98.40
2018-11-11T07:40:11.211Z,98.40
2018-11-11T07:42:39.386Z,98.50
2018-11-11T07:45:07.569Z,98.60
2018-11-11T07:47:35.962Z,98.90
2018-11-11T07:50:04.932Z,99.10
2018-11-11T07:52:33.074Z,99.40
2018-11-11T07:55:01.241Z,99.90
2018-11-11T07:57:29.355Z,99.90
2018-11-11T07:59:57.921Z,99.90
2018-11-11T08:02:26.069Z,99.90
2018-11-11T08:04:54.290Z,99.90
2018-11-11T08:07:22.513Z,99.90
2018-11-11T08:09:50.757Z,99.90
2018-11-11T08:12:18.893Z,99.90
2018-11-11T08:14:47.051Z,99.90
2018-11-11T08:17:15.257Z,99.90
2018-11-11T08:19:43.428Z,99.20
2018-11-11T08:22:11.600Z,98.20
2018-11-11T08:24:39.778Z,96.50
2018-11-11T08:27:07.952Z,96.50
2018-11-11T08:29:36.087Z,96.40
2018-11-11T08:32:04.766Z,96.50
2018-11-11T08:34:32.916Z,96.40
2018-11-11T08:37:01.149Z,96.30
2018-11-11T08:39:29.321Z,96.40
2018-11-11T08:41:57.442Z,96.90
2018-11-11T08:44:26.060Z,96.90
2018-11-11T08:46:54.183Z,97.20
2018-11-11T08:49:22.346Z,97.10
2018-11-11T08:51:50.968Z,97.00
2018-11-11T08:54:19.104Z,97.70
2018-11-11T08:56:47.423Z,97.80
2018-11-11T08:59:15.701Z,97.80
2018-11-11T09:01:44.157Z,97.90
2018-11-11T09:04:12.327Z,98.10
2018-11-11T09:06:40.801Z,98.20
2018-11-11T09:09:09.042Z,98.20
2018-11-11T09:11:37.897Z,97.90
2018-11-11T09:14:06.867Z,98.00
2018-11-11T09:16:36.322Z,97.50
2018-11-11T09:19:04.582Z,97.10
2018-11-11T09:21:32.900Z,97.30
2018-11-11T09:24:00.939Z,97.60
2018-11-11T09:26:29.237Z,97.50
2018-11-11T09:28:57.553Z,96.90
2018-11-11T09:31:26.224Z,96.40
2018-11-11T09:33:54.415Z,96.50
2018-11-11T09:36:22.564Z,96.60
2018-11-11T09:38:50.766Z,96.70
2018-11-11T09:41:19.664Z,97.00
2018-11-11T09:43:47.862Z,97.30
2018-11-11T09:46:15.990Z,97.20
2018-11-11T09:48:44.127Z,96.90
2018-11-11T09:51:12.583Z,96.70
2018-11-11T09:53:40.818Z,96.50
2018-11-11T09:56:09.054Z,96.50
2018-11-11T09:58:37.716Z,96.40
2018-11-11T10:01:05.823Z,96.10
2018-11-11T10:03:37.831Z,96.20
2018-11-11T10:06:22.231Z,96.00
2018-11-11T10:08:55.150Z,95.80
2018-11-11T10:11:31.103Z,95.40
2018-11-11T10:14:03.354Z,94.90
2018-11-11T10:16:40.862Z,94.70
2018-11-11T10:19:13.214Z,94.60
2018-11-11T10:21:46.916Z,94.00
2018-11-11T10:25:19.973Z,93.80
2018-11-11T10:27:55.147Z,93.40
2018-11-11T10:30:32.306Z,93.30
2018-11-11T10:33:17.205Z,93.60
2018-11-11T10:35:54.170Z,93.30
2018-11-11T10:38:29.474Z,93.20
2018-11-11T10:41:04.475Z,92.70
2018-11-11T10:43:42.913Z,92.20
2018-11-11T10:46:15.392Z,92.20
2018-11-11T10:48:47.905Z,91.70
2018-11-11T10:51:16.275Z,91.50
2018-11-11T10:53:44.821Z,91.20
2018-11-11T10:56:13.535Z,91.00
2018-11-11T10:58:41.750Z,90.80
2018-11-11T11:01:15.446Z,90.60
2018-11-11T11:03:43.666Z,90.70
2018-11-11T11:06:12.124Z,90.10
2018-11-11T11:08:45.812Z,90.60
2018-11-11T11:11:14.890Z,90.30
2018-11-11T11:13:43.741Z,90.20
2018-11-11T11:16:11.869Z,90.00
2018-11-11T11:18:41.030Z,90.10
2018-11-11T11:21:09.650Z,90.40
2018-11-11T11:23:37.829Z,90.80
2018-11-11T11:26:05.986Z,91.00
2018-11-11T11:28:34.135Z,90.20
2018-11-11T11:31:02.370Z,90.10
2018-11-11T11:33:30.582Z,88.90
2018-11-11T11:35:59.122Z,84.60
2018-11-11T11:38:27.409Z,82.00
2018-11-11T11:40:55.520Z,82.60
2018-11-11T11:43:23.749Z,82.30
2018-11-11T11:45:51.990Z,80.60
2018-11-11T11:48:20.206Z,77.80
2018-11-11T11:50:48.406Z,79.50
2018-11-11T11:53:16.757Z,79.30
2018-11-11T11:55:45.189Z,78.70
2018-11-11T11:58:16.413Z,78.10
2018-11-11T12:00:44.638Z,77.40
2018-11-11T12:03:12.871Z,76.00
2018-11-11T12:05:41.171Z,74.70
2018-11-11T12:08:09.441Z,76.10
2018-11-11T12:10:37.597Z,76.10
2018-11-11T12:13:06.091Z,76.60
2018-11-11T12:15:34.315Z,77.60
2018-11-11T12:18:02.619Z,78.90
2018-11-11T12:20:30.838Z,79.80
2018-11-11T12:22:59.645Z,79.70
2018-11-11T12:25:27.884Z,80.80
2018-11-11T12:27:56.954Z,82.20
2018-11-11T12:30:25.260Z,82.00
2018-11-11T12:32:53.502Z,82.00
2018-11-11T12:35:21.798Z,82.80
2018-11-11T12:37:49.990Z,85.20
2018-11-11T12:40:18.419Z,86.10
2018-11-11T12:42:46.513Z,84.60
2018-11-11T12:45:14.823Z,83.50
2018-11-11T12:47:42.991Z,83.30
2018-11-11T12:50:12.072Z,84.00
2018-11-11T12:52:40.409Z,84.50
2018-11-11T12:55:08.615Z,83.40
2018-11-11T12:57:37.101Z,86.30
2018-11-11T13:00:07.909Z,88.60
2018-11-11T13:02:36.171Z,89.20
2018-11-11T13:05:05.081Z,88.60
2018-11-11T13:07:33.538Z,88.70
2018-11-11T13:10:01.685Z,89.30
2018-11-11T13:12:30.008Z,90.00
2018-11-11T13:14:58.071Z,90.20
2018-11-11T13:17:26.350Z,90.30
2018-11-11T13:19:54.574Z,90.50
2018-11-11T13:22:22.841Z,90.60
2018-11-11T13:24:50.922Z,90.70
2018-11-11T13:27:19.113Z,90.70
2018-11-11T13:29:47.433Z,90.70
2018-11-11T13:32:15.714Z,90.40
2018-11-11T13:34:43.940Z,90.10
2018-11-11T13:37:12.367Z,88.90
2018-11-11T13:39:40.557Z,89.40
2018-11-11T13:42:08.741Z,90.60
2018-11-11T13:44:37.081Z,91.20
2018-11-11T13:47:05.359Z,91.50
2018-11-11T13:49:33.497Z,90.60
2018-11-11T13:52:01.661Z,90.90
2018-11-11T13:54:29.826Z,90.70
2018-11-11T13:56:57.977Z,91.00
2018-11-11T13:59:26.189Z,91.60
2018-11-11T14:01:54.331Z,92.10
2018-11-11T14:04:22.498Z,92.30
2018-11-11T14:06:50.738Z,92.30
2018-11-11T14:09:18.952Z,92.40
2018-11-11T14:11:47.091Z,92.70
2018-11-11T14:14:15.325Z,92.60
2018-11-11T14:16:43.453Z,92.30
2018-11-11T14:19:11.920Z,92.30
2018-11-11T14:21:39.755Z,92.60
2018-11-11T14:24:07.913Z,92.40
2018-11-11T14:26:36.224Z,91.40
2018-11-11T14:29:04.421Z,91.00
2018-11-11T14:31:32.643Z,90.10
2018-11-11T14:34:00.794Z,88.90
2018-11-11T14:36:28.999Z,88.50
2018-11-11T14:38:57.121Z,88.20
2018-11-11T14:41:25.358Z,88.80
2018-11-11T14:43:53.630Z,89.40
2018-11-11T14:46:22.036Z,90.00
2018-11-11T14:48:50.446Z,90.20
2018-11-11T14:51:18.713Z,90.40
2018-11-11T14:53:46.906Z,90.50
2018-11-11T14:56:15.277Z,91.00
2018-11-11T14:58:43.642Z,91.80
2018-11-11T15:01:11.908Z,91.90
2018-11-11T15:03:40.221Z,92.30
2018-11-11T15:06:08.474Z,92.90
2018-11-11T15:08:36.758Z,93.20
2018-11-11T15:11:05.195Z,93.50
2018-11-11T15:13:33.427Z,94.20
2018-11-11T15:16:01.775Z,94.10
2018-11-11T15:18:29.912Z,94.30
2018-11-11T15:24:16.643Z,94.50
2018-11-11T15:26:44.788Z,94.80
2018-11-11T15:29:13.058Z,95.40
2018-11-11T15:31:41.256Z,95.20
2018-11-11T15:34:09.463Z,95.20
2018-11-11T15:36:37.714Z,95.20
2018-11-11T15:39:08.337Z,95.40
2018-11-11T15:41:36.541Z,95.70
2018-11-11T15:44:05.028Z,95.70
2018-11-11T15:46:33.255Z,95.80
2018-11-11T15:49:01.370Z,96.00
2018-11-11T15:51:29.592Z,96.10
2018-11-11T15:53:57.826Z,96.10
2018-11-11T15:56:26.037Z,96.00
2018-11-11T15:58:54.725Z,95.80
2018-11-11T16:01:22.881Z,95.90
2018-11-11T16:03:51.092Z,95.80
2018-11-11T16:06:19.556Z,95.90
2018-11-11T16:08:47.769Z,96.10
2018-11-11T16:11:16.333Z,96.10
2018-11-11T16:13:45.298Z,96.00
2018-11-11T16:16:13.658Z,96.40
2018-11-11T16:18:41.985Z,96.30
2018-11-11T16:21:10.091Z,96.20
2018-11-11T16:23:38.358Z,96.40
2018-11-11T16:26:06.534Z,96.20
2018-11-11T16:28:34.801Z,96.50
2018-11-11T16:31:03.062Z,96.70
2018-11-11T16:33:31.354Z,96.60
2018-11-11T16:35:59.693Z,96.80
2018-11-11T16:38:28.278Z,96.90
2018-11-11T16:40:56.627Z,97.10
2018-11-11T16:43:24.902Z,97.60
2018-11-11T16:45:53.160Z,98.00
2018-11-11T16:48:21.445Z,98.10
2018-11-11T16:50:49.657Z,98.10
2018-11-11T16:53:17.957Z,98.30
2018-11-11T16:55:46.140Z,98.70
2018-11-11T16:58:14.473Z,98.90
2018-11-11T17:00:42.710Z,99.00
2018-11-11T17:03:10.946Z,99.00
2018-11-11T17:05:39.614Z,99.00
2018-11-11T17:08:07.752Z,98.90
2018-11-11T17:10:37.073Z,98.80
2018-11-11T17:13:06.922Z,98.80
2018-11-11T17:15:35.156Z,98.70
2018-11-11T17:18:03.305Z,98.50
2018-11-11T17:20:31.561Z,98.50
2018-11-11T17:23:01.200Z,98.40
2018-11-11T17:25:29.399Z,98.10
2018-11-11T17:28:04.401Z,98.10
2018-11-11T17:30:33.058Z,98.20
2018-11-11T17:33:01.812Z,98.40
2018-11-11T17:35:29.979Z,98.40
2018-11-11T17:37:58.124Z,98.50
2018-11-11T17:40:27.770Z,98.50
2018-11-11T17:42:56.501Z,98.60
2018-11-11T17:45:24.658Z,98.50
2018-11-11T17:47:53.392Z,98.50
2018-11-11T17:50:23.130Z,98.40
2018-11-11T17:52:51.287Z,98.40
2018-11-11T17:55:20.706Z,98.40
2018-11-11T17:57:48.954Z,98.40
2018-11-11T18:00:20.258Z,98.30
2018-11-11T18:02:48.672Z,98.30
2018-11-11T18:05:18.233Z,98.30
2018-11-11T18:07:48.850Z,98.30
2018-11-11T18:10:19.602Z,98.20
2018-11-11T18:12:47.931Z,98.20
2018-11-11T18:15:17.700Z,98.20
2018-11-11T18:17:45.986Z,98.40
2018-11-11T18:20:15.869Z,98.40
2018-11-11T18:22:44.341Z,98.40
2018-11-11T18:25:14.935Z,98.30
2018-11-11T18:27:43.172Z,98.30
2018-11-11T18:30:15.353Z,98.30
2018-11-11T18:32:43.610Z,98.20
2018-11-11T18:35:13.331Z,98.20
2018-11-11T18:37:41.621Z,98.20
2018-11-11T18:40:11.316Z,98.00
2018-11-11T18:42:39.418Z,98.00
2018-11-11T18:45:11.506Z,98.00
2018-11-11T18:47:39.780Z,97.90
2018-11-11T18:50:10.520Z,97.60
2018-11-11T18:52:38.824Z,97.40
2018-11-11T18:55:07.429Z,97.30
2018-11-11T18:57:35.994Z,97.30
2018-11-11T19:00:04.855Z,97.30
2018-11-11T19:02:33.256Z,97.20
2018-11-11T19:05:01.422Z,97.30
2018-11-11T19:07:29.683Z,97.50
2018-11-11T19:09:57.931Z,97.60
2018-11-11T19:12:26.046Z,97.80
2018-11-11T19:14:54.313Z,97.90
2018-11-11T19:17:22.482Z,97.90
2018-11-11T19:19:50.637Z,98.00
2018-11-11T19:22:18.762Z,97.90
2018-11-11T19:24:47.146Z,97.80
2018-11-11T19:27:15.244Z,97.90
2018-11-11T19:29:43.476Z,98.00
2018-11-11T19:32:11.731Z,98.00
2018-11-11T19:34:39.951Z,98.10
2018-11-11T19:37:08.090Z,98.20
2018-11-11T19:39:36.319Z,98.30
2018-11-11T19:42:04.607Z,98.50
2018-11-11T19:44:32.674Z,98.60
2018-11-11T19:47:03.954Z,98.50
2018-11-11T19:49:32.099Z,98.50
2018-11-11T19:52:00.250Z,98.40
2018-11-11T19:54:28.390Z,98.40
2018-11-11T19:56:56.510Z,98.40
2018-11-11T19:59:24.802Z,98.50
2018-11-11T20:01:52.946Z,98.50
2018-11-11T20:04:21.478Z,98.60
2018-11-11T20:06:49.629Z,98.60
2018-11-11T20:09:18.339Z,98.60
2018-11-11T20:11:46.652Z,98.60
2018-11-11T20:14:15.421Z,98.60
2018-11-11T20:16:43.825Z,98.60
2018-11-11T20:19:12.207Z,98.50
2018-11-11T20:21:40.390Z,98.50
2018-11-11T20:24:08.712Z,98.40
2018-11-11T20:26:36.815Z,98.30
2018-11-11T20:29:05.476Z,98.20
2018-11-11T20:31:33.707Z,98.30
2018-11-11T20:34:01.890Z,98.40
2018-11-11T20:36:30.024Z,98.40
2018-11-11T20:38:58.307Z,98.50
2018-11-11T20:41:26.470Z,98.60
2018-11-11T20:43:54.598Z,98.60
2018-11-11T20:46:22.788Z,98.50
2018-11-11T20:48:51.001Z,98.60
2018-11-11T20:51:23.087Z,98.50
2018-11-11T20:53:51.242Z,98.40
2018-11-11T20:56:19.828Z,98.30
2018-11-11T20:58:48.063Z,98.30
2018-11-11T21:01:16.266Z,98.30
2018-11-11T21:03:44.596Z,98.40
2018-11-11T21:06:13.289Z,98.40
2018-11-11T21:08:41.497Z,98.30
2018-11-11T21:11:09.864Z,98.10
2018-11-11T21:13:38.213Z,98.10
2018-11-11T21:16:06.373Z,98.10
2018-11-11T21:18:34.772Z,98.00
2018-11-11T21:21:02.901Z,97.80
2018-11-11T21:23:31.021Z,97.70
2018-11-11T21:25:59.165Z,97.50
2018-11-11T21:28:27.361Z,97.50
2018-11-11T21:30:55.563Z,97.50
2018-11-11T21:33:23.951Z,97.50
2018-11-11T21:35:53.560Z,97.50
2018-11-11T21:38:21.837Z,97.90
2018-11-11T21:40:50.180Z,98.20
2018-11-11T21:43:20.126Z,97.90
2018-11-11T21:45:49.092Z,97.80
2018-11-11T21:48:17.335Z,98.00
2018-11-11T21:50:45.670Z,98.10
2018-11-11T21:53:31.578Z,98.30
2018-11-11T21:56:00.739Z,98.20
2018-11-11T21:58:28.914Z,97.90
2018-11-11T22:00:57.117Z,97.70
2018-11-11T22:03:25.901Z,97.90
2018-11-11T22:05:54.490Z,98.00
2018-11-11T22:08:22.974Z,98.20
2018-11-11T22:10:51.582Z,98.30
2018-11-11T22:13:20.503Z,98.40
2018-11-11T22:15:48.694Z,98.50
2018-11-11T22:18:17.296Z,98.90
2018-11-11T22:20:45.465Z,99.20
2018-11-11T22:23:13.611Z,99.10
2018-11-11T22:25:41.779Z,98.80
2018-11-11T22:28:10.180Z,98.50
2018-11-11T22:30:38.247Z,98.40
2018-11-11T22:33:06.390Z,98.20
2018-11-11T22:35:34.541Z,98.50
2018-11-11T22:38:02.669Z,98.30
2018-11-11T22:40:30.797Z,98.40
2018-11-11T22:42:58.969Z,98.80
2018-11-11T22:45:27.132Z,98.60
2018-11-11T22:47:55.295Z,98.40
2018-11-11T22:50:23.475Z,98.10
2018-11-11T22:52:51.613Z,98.00
2018-11-11T22:55:19.773Z,98.10
2018-11-11T22:57:47.902Z,98.30
2018-11-11T23:00:34.921Z,98.30
2018-11-11T23:03:03.059Z,98.30
2018-11-11T23:05:31.188Z,98.20
2018-11-11T23:07:59.342Z,98.20
2018-11-11T23:10:27.470Z,98.20
2018-11-11T23:12:55.981Z,98.20
2018-11-11T23:15:24.668Z,98.40
2018-11-11T23:17:52.871Z,98.50
2018-11-11T23:20:21.562Z,98.60
2018-11-11T23:22:49.713Z,98.80
2018-11-11T23:25:18.401Z,99.00
2018-11-11T23:27:46.541Z,99.00
2018-11-11T23:30:18.735Z,99.00
2018-11-11T23:32:47.532Z,98.90
2018-11-11T23:35:15.688Z,98.70
2018-11-11T23:37:44.076Z,98.90
2018-11-11T23:40:13.476Z,98.90
2018-11-11T23:42:42.471Z,98.80
2018-11-11T23:45:10.610Z,98.90
2018-11-11T23:47:38.740Z,98.90
2018-11-11T23:50:09.166Z,98.90
2018-11-11T23:52:37.321Z,98.90
2018-11-11T23:55:07.093Z,98.90
2018-11-11T23:57:35.209Z,98.60
